TimeCST,TemperatureF,Dew PointF,Humidity,Sea Level PressureIn,VisibilityMPH,Wind Direction,Wind SpeedMPH,Gust SpeedMPH,PrecipitationIn,Events,Conditions,WindDirDegrees,DateUTC
12:53 AM,24.1,21.9,91,30.45,8.0,Calm,Calm,-,N/A,,Mostly Cloudy,0,2013-01-04 06:53:00
1:53 AM,26.1,24.1,92,30.45,8.0,Calm,Calm,-,N/A,,Overcast,0,2013-01-04 07:53:00
2:53 AM,26.1,24.1,92,30.45,9.0,Calm,Calm,-,N/A,,Overcast,0,2013-01-04 08:53:00
3:53 AM,23.0,19.9,88,30.45,8.0,Calm,Calm,-,N/A,,Clear,0,2013-01-04 09:53:00
4:53 AM,21.0,19.0,92,30.46,5.0,Calm,Calm,-,N/A,,Clear,0,2013-01-04 10:53:00
5:53 AM,19.4,17.6,93,30.43,6.0,Calm,Calm,-,N/A,,Clear,0,2013-01-04 11:53:00
6:53 AM,19.4,17.6,93,30.46,9.0,SSW,5.8,-,N/A,,Clear,200,2013-01-04 12:53:00
7:53 AM,18.0,17.1,96,30.50,7.0,Calm,Calm,-,N/A,,Clear,0,2013-01-04 13:53:00
8:53 AM,23.0,21.0,92,30.50,8.0,South,3.5,-,N/A,,Clear,170,2013-01-04 14:53:00
9:53 AM,30.0,26.1,85,30.51,10.0,South,5.8,-,N/A,,Clear,180,2013-01-04 15:53:00
10:53 AM,37.0,23.0,57,30.50,10.0,South,5.8,-,N/A,,Clear,170,2013-01-04 16:53:00
11:53 AM,42.1,18.0,38,30.47,10.0,Variable,6.9,-,N/A,,Clear,0,2013-01-04 17:53:00
12:53 PM,44.1,19.9,38,30.43,10.0,Variable,6.9,-,N/A,,Clear,0,2013-01-04 18:53:00
1:53 PM,45.0,21.0,39,30.39,10.0,West,8.1,-,N/A,,Clear,280,2013-01-04 19:53:00
2:53 PM,44.1,21.0,40,30.39,10.0,WSW,6.9,-,N/A,,Mostly Cloudy,250,2013-01-04 20:53:00
3:53 PM,42.1,21.0,43,30.39,10.0,SW,5.8,-,N/A,,Overcast,230,2013-01-04 21:53:00
4:53 PM,39.0,23.0,53,30.39,10.0,SSW,8.1,-,N/A,,Clear,210,2013-01-04 22:53:00
5:53 PM,35.1,23.0,61,30.40,10.0,South,4.6,-,N/A,,Clear,190,2013-01-04 23:53:00
6:53 PM,33.1,23.0,66,30.42,10.0,SSW,4.6,-,N/A,,Clear,210,2013-01-05 00:53:00
7:53 PM,30.0,23.0,75,30.42,10.0,SSW,4.6,-,N/A,,Clear,210,2013-01-05 01:53:00
8:53 PM,28.0,23.0,81,30.42,10.0,South,8.1,-,N/A,,Clear,190,2013-01-05 02:53:00
9:53 PM,26.1,21.9,84,30.40,10.0,South,5.8,-,N/A,,Clear,190,2013-01-05 03:53:00
10:53 PM,26.1,21.9,84,30.38,10.0,Calm,Calm,-,N/A,,Clear,0,2013-01-05 04:53:00
11:53 PM,23.0,19.9,88,30.37,10.0,SSW,4.6,-,N/A,,Clear,200,2013-01-05 05:53:00